sensor_id;sensor_type;location;lat;lon;timestamp;pressure;altitude;pressure_sealevel;temperature;humidity
73918;BME280;63639;52.280;5.162;2023-02-14T00:02:23;103610.80;;;11.76;57.22
73918;BME280;63639;52.280;5.162;2023-02-14T00:04:50;103611.96;;;11.73;57.09
73918;BME280;63639;52.280;5.162;2023-02-14T00:07:16;103612.23;;;11.70;57.40
73918;BME280;63639;52.280;5.162;2023-02-14T00:09:44;103612.59;;;11.66;57.46
73918;BME280;63639;52.280;5.162;2023-02-14T00:12:11;103609.90;;;11.61;57.66
73918;BME280;63639;52.280;5.162;2023-02-14T00:14:38;103609.47;;;11.54;58.12
73918;BME280;63639;52.280;5.162;2023-02-14T00:17:05;103609.07;;;11.49;58.18
73918;BME280;63639;52.280;5.162;2023-02-14T00:19:31;103605.57;;;11.48;58.15
73918;BME280;63639;52.280;5.162;2023-02-14T00:21:58;103606.94;;;11.50;57.91
73918;BME280;63639;52.280;5.162;2023-02-14T00:24:25;103607.53;;;11.52;57.77
73918;BME280;63639;52.280;5.162;2023-02-14T00:26:52;103603.08;;;11.51;57.98
73918;BME280;63639;52.280;5.162;2023-02-14T00:29:21;103601.69;;;11.51;57.98
73918;BME280;63639;52.280;5.162;2023-02-14T00:31:49;103602.85;;;11.45;58.33
73918;BME280;63639;52.280;5.162;2023-02-14T00:34:17;103601.67;;;11.42;58.39
73918;BME280;63639;52.280;5.162;2023-02-14T00:36:45;103599.89;;;11.41;58.18
73918;BME280;63639;52.280;5.162;2023-02-14T00:39:14;103598.14;;;11.39;57.91
73918;BME280;63639;52.280;5.162;2023-02-14T00:41:41;103600.55;;;11.38;58.04
73918;BME280;63639;52.280;5.162;2023-02-14T00:44:09;103596.83;;;11.39;57.65
73918;BME280;63639;52.280;5.162;2023-02-14T00:46:36;103592.26;;;11.36;57.87
73918;BME280;63639;52.280;5.162;2023-02-14T00:49:03;103590.10;;;11.30;57.79
73918;BME280;63639;52.280;5.162;2023-02-14T00:51:30;103584.25;;;11.26;58.01
73918;BME280;63639;52.280;5.162;2023-02-14T00:53:57;103584.67;;;11.24;57.73
73918;BME280;63639;52.280;5.162;2023-02-14T00:56:24;103580.81;;;11.19;57.84
73918;BME280;63639;52.280;5.162;2023-02-14T00:58:51;103579.07;;;11.16;58.11
73918;BME280;63639;52.280;5.162;2023-02-14T01:01:18;103579.51;;;11.13;58.55
73918;BME280;63639;52.280;5.162;2023-02-14T01:03:46;103578.04;;;11.10;58.78
73918;BME280;63639;52.280;5.162;2023-02-14T01:06:13;103573.78;;;11.06;59.14
73918;BME280;63639;52.280;5.162;2023-02-14T01:08:40;103573.17;;;11.04;59.48
73918;BME280;63639;52.280;5.162;2023-02-14T01:11:08;103568.66;;;11.04;59.27
73918;BME280;63639;52.280;5.162;2023-02-14T01:13:35;103568.03;;;11.03;59.25
73918;BME280;63639;52.280;5.162;2023-02-14T01:16:05;103563.00;;;11.02;59.13
73918;BME280;63639;52.280;5.162;2023-02-14T01:18:32;103564.52;;;10.99;59.46
73918;BME280;63639;52.280;5.162;2023-02-14T01:21:10;103560.54;;;10.97;58.91
73918;BME280;63639;52.280;5.162;2023-02-14T01:23:38;103561.38;;;10.92;59.13
73918;BME280;63639;52.280;5.162;2023-02-14T01:26:06;103560.07;;;10.90;59.23
73918;BME280;63639;52.280;5.162;2023-02-14T01:28:34;103558.19;;;10.89;59.34
73918;BME280;63639;52.280;5.162;2023-02-14T01:31:07;103557.01;;;10.90;58.91
73918;BME280;63639;52.280;5.162;2023-02-14T01:33:34;103557.48;;;10.91;58.81
73918;BME280;63639;52.280;5.162;2023-02-14T01:36:01;103558.71;;;10.94;58.61
73918;BME280;63639;52.280;5.162;2023-02-14T01:38:28;103558.92;;;10.90;59.02
73918;BME280;63639;52.280;5.162;2023-02-14T01:40:54;103561.63;;;10.89;58.87
73918;BME280;63639;52.280;5.162;2023-02-14T01:43:21;103564.27;;;10.87;58.83
73918;BME280;63639;52.280;5.162;2023-02-14T01:45:48;103564.99;;;10.85;58.99
73918;BME280;63639;52.280;5.162;2023-02-14T01:48:16;103567.00;;;10.82;58.73
73918;BME280;63639;52.280;5.162;2023-02-14T01:50:45;103564.56;;;10.77;59.01
73918;BME280;63639;52.280;5.162;2023-02-14T01:53:16;103565.97;;;10.77;58.66
73918;BME280;63639;52.280;5.162;2023-02-14T01:55:48;103562.81;;;10.78;58.47
73918;BME280;63639;52.280;5.162;2023-02-14T01:58:19;103562.06;;;10.77;58.49
73918;BME280;63639;52.280;5.162;2023-02-14T02:03:16;103558.85;;;10.78;57.96
73918;BME280;63639;52.280;5.162;2023-02-14T02:05:47;103559.46;;;10.77;57.79
73918;BME280;63639;52.280;5.162;2023-02-14T02:08:16;103556.49;;;10.75;57.86
73918;BME280;63639;52.280;5.162;2023-02-14T02:10:43;103557.27;;;10.73;57.95
73918;BME280;63639;52.280;5.162;2023-02-14T02:13:16;103553.71;;;10.72;58.14
73918;BME280;63639;52.280;5.162;2023-02-14T02:15:52;103551.41;;;10.66;58.82
73918;BME280;63639;52.280;5.162;2023-02-14T02:18:29;103550.96;;;10.60;59.09
73918;BME280;63639;52.280;5.162;2023-02-14T02:21:14;103554.97;;;10.59;59.33
73918;BME280;63639;52.280;5.162;2023-02-14T02:23:59;103556.66;;;10.59;58.61
73918;BME280;63639;52.280;5.162;2023-02-14T02:26:51;103554.01;;;10.59;58.65
73918;BME280;63639;52.280;5.162;2023-02-14T02:30:00;103555.44;;;10.58;58.18
73918;BME280;63639;52.280;5.162;2023-02-14T02:32:50;103555.35;;;10.53;58.43
73918;BME280;63639;52.280;5.162;2023-02-14T02:35:30;103552.97;;;10.52;58.77
73918;BME280;63639;52.280;5.162;2023-02-14T02:38:10;103554.23;;;10.52;58.41
73918;BME280;63639;52.280;5.162;2023-02-14T02:40:46;103550.79;;;10.50;58.41
73918;BME280;63639;52.280;5.162;2023-02-14T02:43:29;103550.59;;;10.45;58.62
73918;BME280;63639;52.280;5.162;2023-02-14T02:46:04;103550.29;;;10.46;57.80
73918;BME280;63639;52.280;5.162;2023-02-14T02:48:38;103548.11;;;10.44;57.57
73918;BME280;63639;52.280;5.162;2023-02-14T02:51:09;103547.59;;;10.41;58.18
73918;BME280;63639;52.280;5.162;2023-02-14T02:53:41;103548.26;;;10.42;58.45
73918;BME280;63639;52.280;5.162;2023-02-14T02:56:13;103546.31;;;10.40;58.66
73918;BME280;63639;52.280;5.162;2023-02-14T02:58:45;103544.52;;;10.34;58.67
73918;BME280;63639;52.280;5.162;2023-02-14T03:01:16;103544.70;;;10.34;58.30
73918;BME280;63639;52.280;5.162;2023-02-14T03:03:47;103542.55;;;10.33;58.08
73918;BME280;63639;52.280;5.162;2023-02-14T03:06:17;103541.09;;;10.33;58.11
73918;BME280;63639;52.280;5.162;2023-02-14T03:08:44;103537.34;;;10.30;58.87
73918;BME280;63639;52.280;5.162;2023-02-14T03:11:12;103537.60;;;10.32;58.57
73918;BME280;63639;52.280;5.162;2023-02-14T03:13:55;103537.59;;;10.31;58.58
73918;BME280;63639;52.280;5.162;2023-02-14T03:16:32;103536.40;;;10.30;58.46
73918;BME280;63639;52.280;5.162;2023-02-14T03:19:15;103532.22;;;10.28;58.69
73918;BME280;63639;52.280;5.162;2023-02-14T03:21:51;103529.63;;;10.26;58.41
73918;BME280;63639;52.280;5.162;2023-02-14T03:24:25;103526.77;;;10.24;58.56
73918;BME280;63639;52.280;5.162;2023-02-14T03:27:00;103527.19;;;10.23;58.21
73918;BME280;63639;52.280;5.162;2023-02-14T03:29:38;103525.49;;;10.20;58.21
73918;BME280;63639;52.280;5.162;2023-02-14T03:32:12;103529.11;;;10.17;58.54
73918;BME280;63639;52.280;5.162;2023-02-14T03:34:50;103529.47;;;10.14;58.58
73918;BME280;63639;52.280;5.162;2023-02-14T03:37:23;103526.74;;;10.12;58.98
73918;BME280;63639;52.280;5.162;2023-02-14T03:39:58;103523.53;;;10.14;58.67
73918;BME280;63639;52.280;5.162;2023-02-14T03:42:28;103522.96;;;10.12;58.52
73918;BME280;63639;52.280;5.162;2023-02-14T03:44:57;103520.71;;;10.07;58.55
73918;BME280;63639;52.280;5.162;2023-02-14T03:47:28;103523.94;;;10.05;58.82
73918;BME280;63639;52.280;5.162;2023-02-14T03:50:01;103524.39;;;10.04;58.82
73918;BME280;63639;52.280;5.162;2023-02-14T03:52:31;103517.28;;;10.05;58.67
73918;BME280;63639;52.280;5.162;2023-02-14T03:55:02;103518.80;;;10.03;59.07
73918;BME280;63639;52.280;5.162;2023-02-14T03:57:34;103519.54;;;10.01;59.65
73918;BME280;63639;52.280;5.162;2023-02-14T04:00:03;103520.10;;;10.03;59.01
73918;BME280;63639;52.280;5.162;2023-02-14T04:02:34;103523.45;;;10.02;59.11
73918;BME280;63639;52.280;5.162;2023-02-14T04:05:08;103526.10;;;10.00;59.40
73918;BME280;63639;52.280;5.162;2023-02-14T04:07:44;103527.05;;;9.99;59.47
73918;BME280;63639;52.280;5.162;2023-02-14T04:10:12;103526.08;;;9.99;59.51
73918;BME280;63639;52.280;5.162;2023-02-14T04:12:40;103524.31;;;9.97;59.49
73918;BME280;63639;52.280;5.162;2023-02-14T04:15:07;103527.08;;;9.92;59.85
73918;BME280;63639;52.280;5.162;2023-02-14T04:17:34;103528.56;;;9.89;59.96
73918;BME280;63639;52.280;5.162;2023-02-14T04:20:01;103527.67;;;9.89;59.74
73918;BME280;63639;52.280;5.162;2023-02-14T04:22:28;103528.20;;;9.89;59.82
73918;BME280;63639;52.280;5.162;2023-02-14T04:24:54;103526.72;;;9.89;60.02
73918;BME280;63639;52.280;5.162;2023-02-14T04:27:21;103524.31;;;9.90;59.81
73918;BME280;63639;52.280;5.162;2023-02-14T04:29:48;103521.36;;;9.91;59.34
73918;BME280;63639;52.280;5.162;2023-02-14T04:32:18;103519.50;;;9.87;59.90
73918;BME280;63639;52.280;5.162;2023-02-14T04:34:45;103518.56;;;9.83;59.84
73918;BME280;63639;52.280;5.162;2023-02-14T04:37:14;103517.72;;;9.80;60.02
73918;BME280;63639;52.280;5.162;2023-02-14T04:39:41;103515.60;;;9.79;59.64
73918;BME280;63639;52.280;5.162;2023-02-14T04:42:08;103513.07;;;9.73;60.31
73918;BME280;63639;52.280;5.162;2023-02-14T04:44:35;103513.40;;;9.72;60.36
73918;BME280;63639;52.280;5.162;2023-02-14T04:47:03;103510.52;;;9.69;60.53
73918;BME280;63639;52.280;5.162;2023-02-14T04:49:31;103511.27;;;9.68;60.57
73918;BME280;63639;52.280;5.162;2023-02-14T04:51:58;103512.86;;;9.65;60.56
73918;BME280;63639;52.280;5.162;2023-02-14T04:54:25;103515.50;;;9.62;60.74
73918;BME280;63639;52.280;5.162;2023-02-14T04:56:51;103518.26;;;9.58;60.17
73918;BME280;63639;52.280;5.162;2023-02-14T04:59:18;103515.83;;;9.53;60.18
73918;BME280;63639;52.280;5.162;2023-02-14T05:01:45;103517.98;;;9.46;60.54
73918;BME280;63639;52.280;5.162;2023-02-14T05:04:12;103519.84;;;9.44;60.83
73918;BME280;63639;52.280;5.162;2023-02-14T05:06:39;103518.64;;;9.44;60.85
73918;BME280;63639;52.280;5.162;2023-02-14T05:09:07;103514.77;;;9.45;60.71
73918;BME280;63639;52.280;5.162;2023-02-14T05:11:34;103518.25;;;9.45;60.86
73918;BME280;63639;52.280;5.162;2023-02-14T05:14:01;103518.91;;;9.45;60.84
73918;BME280;63639;52.280;5.162;2023-02-14T05:16:28;103520.78;;;9.43;60.91
73918;BME280;63639;52.280;5.162;2023-02-14T05:18:55;103520.96;;;9.45;60.74
73918;BME280;63639;52.280;5.162;2023-02-14T05:21:22;103516.85;;;9.47;60.69
73918;BME280;63639;52.280;5.162;2023-02-14T05:23:49;103517.28;;;9.47;60.33
73918;BME280;63639;52.280;5.162;2023-02-14T05:26:16;103515.15;;;9.45;60.14
73918;BME280;63639;52.280;5.162;2023-02-14T05:28:42;103514.58;;;9.40;60.72
73918;BME280;63639;52.280;5.162;2023-02-14T05:31:09;103519.64;;;9.40;60.40
73918;BME280;63639;52.280;5.162;2023-02-14T05:33:36;103521.22;;;9.37;59.88
73918;BME280;63639;52.280;5.162;2023-02-14T05:36:03;103520.23;;;9.27;60.13
73918;BME280;63639;52.280;5.162;2023-02-14T05:38:30;103521.56;;;9.21;60.69
73918;BME280;63639;52.280;5.162;2023-02-14T05:40:57;103519.28;;;9.20;60.42
73918;BME280;63639;52.280;5.162;2023-02-14T05:43:24;103518.39;;;9.18;60.69
73918;BME280;63639;52.280;5.162;2023-02-14T05:45:51;103517.80;;;9.17;60.63
73918;BME280;63639;52.280;5.162;2023-02-14T05:48:17;103512.07;;;9.14;60.53
73918;BME280;63639;52.280;5.162;2023-02-14T05:50:44;103507.69;;;9.11;60.59
73918;BME280;63639;52.280;5.162;2023-02-14T05:53:11;103505.25;;;9.08;61.13
73918;BME280;63639;52.280;5.162;2023-02-14T05:55:38;103505.20;;;9.04;60.81
73918;BME280;63639;52.280;5.162;2023-02-14T05:58:06;103505.25;;;9.03;60.65
73918;BME280;63639;52.280;5.162;2023-02-14T06:00:33;103506.96;;;9.03;60.96
73918;BME280;63639;52.280;5.162;2023-02-14T06:03:00;103509.53;;;9.05;60.70
73918;BME280;63639;52.280;5.162;2023-02-14T06:05:27;103512.44;;;9.00;60.64
73918;BME280;63639;52.280;5.162;2023-02-14T06:07:54;103510.19;;;8.97;60.82
73918;BME280;63639;52.280;5.162;2023-02-14T06:10:23;103510.45;;;8.95;60.98
73918;BME280;63639;52.280;5.162;2023-02-14T06:12:52;103513.08;;;8.94;61.04
73918;BME280;63639;52.280;5.162;2023-02-14T06:15:19;103512.40;;;8.95;60.76
73918;BME280;63639;52.280;5.162;2023-02-14T06:17:50;103513.00;;;8.93;60.87
73918;BME280;63639;52.280;5.162;2023-02-14T06:20:18;103513.40;;;8.88;60.87
73918;BME280;63639;52.280;5.162;2023-02-14T06:22:44;103513.06;;;8.81;61.13
73918;BME280;63639;52.280;5.162;2023-02-14T06:25:12;103514.14;;;8.75;61.10
73918;BME280;63639;52.280;5.162;2023-02-14T06:27:39;103513.64;;;8.71;61.32
73918;BME280;63639;52.280;5.162;2023-02-14T06:30:07;103512.26;;;8.69;61.49
73918;BME280;63639;52.280;5.162;2023-02-14T06:32:35;103514.28;;;8.73;61.60
73918;BME280;63639;52.280;5.162;2023-02-14T06:35:03;103515.20;;;8.78;61.39
73918;BME280;63639;52.280;5.162;2023-02-14T06:37:30;103512.31;;;8.81;60.83
73918;BME280;63639;52.280;5.162;2023-02-14T06:39:57;103508.41;;;8.72;61.50
73918;BME280;63639;52.280;5.162;2023-02-14T06:42:23;103511.48;;;8.72;61.34
73918;BME280;63639;52.280;5.162;2023-02-14T06:44:51;103508.73;;;8.66;61.86
73918;BME280;63639;52.280;5.162;2023-02-14T06:47:17;103508.95;;;8.67;61.81
73918;BME280;63639;52.280;5.162;2023-02-14T06:49:44;103510.23;;;8.69;61.63
73918;BME280;63639;52.280;5.162;2023-02-14T06:52:10;103506.69;;;8.63;61.45
73918;BME280;63639;52.280;5.162;2023-02-14T06:54:37;103504.35;;;8.58;61.79
73918;BME280;63639;52.280;5.162;2023-02-14T06:57:05;103505.22;;;8.59;61.89
73918;BME280;63639;52.280;5.162;2023-02-14T06:59:32;103503.40;;;8.59;61.73
73918;BME280;63639;52.280;5.162;2023-02-14T07:01:59;103507.12;;;8.59;61.96
73918;BME280;63639;52.280;5.162;2023-02-14T07:04:26;103506.36;;;8.58;61.92
73918;BME280;63639;52.280;5.162;2023-02-14T07:06:53;103503.12;;;8.57;62.01
73918;BME280;63639;52.280;5.162;2023-02-14T07:09:20;103503.92;;;8.55;61.82
73918;BME280;63639;52.280;5.162;2023-02-14T07:11:52;103506.06;;;8.54;62.38
73918;BME280;63639;52.280;5.162;2023-02-14T07:14:18;103506.31;;;8.56;61.90
73918;BME280;63639;52.280;5.162;2023-02-14T07:16:45;103508.77;;;8.55;61.94
73918;BME280;63639;52.280;5.162;2023-02-14T07:19:13;103507.95;;;8.46;62.23
73918;BME280;63639;52.280;5.162;2023-02-14T07:21:39;103508.79;;;8.40;62.65
73918;BME280;63639;52.280;5.162;2023-02-14T07:24:07;103506.81;;;8.38;62.62
73918;BME280;63639;52.280;5.162;2023-02-14T07:26:34;103505.39;;;8.34;62.45
73918;BME280;63639;52.280;5.162;2023-02-14T07:29:01;103506.46;;;8.34;62.95
73918;BME280;63639;52.280;5.162;2023-02-14T07:31:28;103505.32;;;8.39;63.01
73918;BME280;63639;52.280;5.162;2023-02-14T07:33:56;103509.18;;;8.44;62.62
73918;BME280;63639;52.280;5.162;2023-02-14T07:36:24;103516.41;;;8.44;62.30
73918;BME280;63639;52.280;5.162;2023-02-14T07:38:51;103515.88;;;8.38;62.90
73918;BME280;63639;52.280;5.162;2023-02-14T07:41:18;103514.35;;;8.41;63.51
73918;BME280;63639;52.280;5.162;2023-02-14T07:43:45;103514.72;;;8.50;62.76
73918;BME280;63639;52.280;5.162;2023-02-14T07:46:12;103515.53;;;8.49;62.73
73918;BME280;63639;52.280;5.162;2023-02-14T07:48:39;103514.43;;;8.45;62.91
73918;BME280;63639;52.280;5.162;2023-02-14T07:51:06;103518.19;;;8.43;63.05
73918;BME280;63639;52.280;5.162;2023-02-14T07:53:33;103517.67;;;8.46;62.97
73918;BME280;63639;52.280;5.162;2023-02-14T07:55:59;103516.59;;;8.51;63.19
73918;BME280;63639;52.280;5.162;2023-02-14T07:58:26;103516.16;;;8.59;63.02
73918;BME280;63639;52.280;5.162;2023-02-14T08:00:54;103518.85;;;8.57;62.50
73918;BME280;63639;52.280;5.162;2023-02-14T08:03:21;103521.31;;;8.50;63.19
73918;BME280;63639;52.280;5.162;2023-02-14T08:05:48;103520.35;;;8.47;63.28
73918;BME280;63639;52.280;5.162;2023-02-14T08:08:15;103519.68;;;8.45;63.42
73918;BME280;63639;52.280;5.162;2023-02-14T08:10:42;103520.87;;;8.42;63.63
73918;BME280;63639;52.280;5.162;2023-02-14T08:13:09;103520.04;;;8.30;64.10
73918;BME280;63639;52.280;5.162;2023-02-14T08:15:35;103517.87;;;8.32;64.11
73918;BME280;63639;52.280;5.162;2023-02-14T08:18:03;103517.85;;;8.33;64.29
73918;BME280;63639;52.280;5.162;2023-02-14T08:20:30;103520.28;;;8.43;64.38
73918;BME280;63639;52.280;5.162;2023-02-14T08:22:57;103520.56;;;8.56;64.39
73918;BME280;63639;52.280;5.162;2023-02-14T08:25:24;103525.15;;;8.71;63.69
73918;BME280;63639;52.280;5.162;2023-02-14T08:27:50;103526.21;;;8.76;63.21
73918;BME280;63639;52.280;5.162;2023-02-14T08:30:18;103525.19;;;8.77;63.51
73918;BME280;63639;52.280;5.162;2023-02-14T08:32:45;103526.49;;;8.80;63.59
73918;BME280;63639;52.280;5.162;2023-02-14T08:35:11;103527.65;;;8.81;63.85
73918;BME280;63639;52.280;5.162;2023-02-14T08:37:39;103525.65;;;8.92;63.72
73918;BME280;63639;52.280;5.162;2023-02-14T08:40:07;103527.68;;;9.01;63.51
73918;BME280;63639;52.280;5.162;2023-02-14T08:42:34;103531.41;;;9.05;63.59
73918;BME280;63639;52.280;5.162;2023-02-14T08:45:01;103531.63;;;9.12;63.60
73918;BME280;63639;52.280;5.162;2023-02-14T08:47:28;103534.18;;;9.17;63.20
73918;BME280;63639;52.280;5.162;2023-02-14T08:49:55;103530.86;;;9.19;63.48
73918;BME280;63639;52.280;5.162;2023-02-14T08:52:22;103529.27;;;9.24;63.86
73918;BME280;63639;52.280;5.162;2023-02-14T08:54:48;103529.02;;;9.26;64.16
73918;BME280;63639;52.280;5.162;2023-02-14T08:57:15;103529.89;;;9.33;64.32
73918;BME280;63639;52.280;5.162;2023-02-14T08:59:43;103527.14;;;9.35;64.72
73918;BME280;63639;52.280;5.162;2023-02-14T09:02:12;103527.55;;;9.48;64.48
73918;BME280;63639;52.280;5.162;2023-02-14T09:04:39;103522.15;;;9.53;64.59
73918;BME280;63639;52.280;5.162;2023-02-14T09:07:06;103521.42;;;9.57;65.04
73918;BME280;63639;52.280;5.162;2023-02-14T09:09:33;103517.85;;;9.60;65.42
73918;BME280;63639;52.280;5.162;2023-02-14T09:12:02;103516.45;;;9.60;65.70
73918;BME280;63639;52.280;5.162;2023-02-14T09:14:34;103517.14;;;9.61;66.25
73918;BME280;63639;52.280;5.162;2023-02-14T09:17:01;103514.91;;;9.55;67.28
73918;BME280;63639;52.280;5.162;2023-02-14T09:19:28;103514.51;;;9.54;67.43
73918;BME280;63639;52.280;5.162;2023-02-14T09:21:55;103512.64;;;9.64;67.83
73918;BME280;63639;52.280;5.162;2023-02-14T09:24:23;103512.19;;;9.84;68.12
73918;BME280;63639;52.280;5.162;2023-02-14T09:26:50;103509.29;;;10.34;67.53
73918;BME280;63639;52.280;5.162;2023-02-14T09:29:16;103502.78;;;10.80;65.86
73918;BME280;63639;52.280;5.162;2023-02-14T09:31:43;103498.92;;;10.98;64.56
73918;BME280;63639;52.280;5.162;2023-02-14T09:34:10;103500.37;;;11.10;64.66
73918;BME280;63639;52.280;5.162;2023-02-14T09:36:37;103497.57;;;11.30;63.95
73918;BME280;63639;52.280;5.162;2023-02-14T09:39:05;103495.22;;;11.57;64.61
73918;BME280;63639;52.280;5.162;2023-02-14T09:41:49;103497.04;;;11.99;62.41
73918;BME280;63639;52.280;5.162;2023-02-14T09:44:24;103494.78;;;12.36;61.60
73918;BME280;63639;52.280;5.162;2023-02-14T09:46:56;103493.91;;;12.81;59.94
73918;BME280;63639;52.280;5.162;2023-02-14T09:49:30;103495.65;;;13.15;58.24
73918;BME280;63639;52.280;5.162;2023-02-14T09:52:04;103496.82;;;13.44;58.51
73918;BME280;63639;52.280;5.162;2023-02-14T09:54:34;103496.44;;;13.69;57.09
73918;BME280;63639;52.280;5.162;2023-02-14T09:57:07;103497.04;;;13.63;56.76
73918;BME280;63639;52.280;5.162;2023-02-14T09:59:42;103495.42;;;13.76;56.67
73918;BME280;63639;52.280;5.162;2023-02-14T10:02:25;103497.66;;;14.05;56.66
73918;BME280;63639;52.280;5.162;2023-02-14T10:05:04;103490.65;;;14.19;55.76
73918;BME280;63639;52.280;5.162;2023-02-14T10:07:39;103491.38;;;14.42;54.87
73918;BME280;63639;52.280;5.162;2023-02-14T10:10:13;103493.73;;;14.43;53.50
73918;BME280;63639;52.280;5.162;2023-02-14T10:12:45;103490.91;;;14.23;54.96
73918;BME280;63639;52.280;5.162;2023-02-14T10:15:16;103483.89;;;14.24;55.26
73918;BME280;63639;52.280;5.162;2023-02-14T10:17:48;103485.30;;;14.48;55.61
73918;BME280;63639;52.280;5.162;2023-02-14T10:20:22;103485.01;;;14.77;54.99
73918;BME280;63639;52.280;5.162;2023-02-14T10:22:58;103484.30;;;15.14;53.80
73918;BME280;63639;52.280;5.162;2023-02-14T10:25:31;103487.46;;;15.44;53.11
73918;BME280;63639;52.280;5.162;2023-02-14T10:28:00;103483.21;;;15.19;52.17
73918;BME280;63639;52.280;5.162;2023-02-14T10:30:35;103479.34;;;14.88;52.41
73918;BME280;63639;52.280;5.162;2023-02-14T10:33:09;103484.15;;;14.75;53.45
73918;BME280;63639;52.280;5.162;2023-02-14T10:35:42;103483.34;;;14.87;53.09
73918;BME280;63639;52.280;5.162;2023-02-14T10:38:23;103483.23;;;14.77;52.47
73918;BME280;63639;52.280;5.162;2023-02-14T10:41:04;103479.01;;;14.69;52.38
73918;BME280;63639;52.280;5.162;2023-02-14T10:43:40;103478.68;;;14.83;51.86
73918;BME280;63639;52.280;5.162;2023-02-14T10:46:28;103475.87;;;14.75;51.76
73918;BME280;63639;52.280;5.162;2023-02-14T10:49:02;103473.62;;;14.80;51.34
73918;BME280;63639;52.280;5.162;2023-02-14T10:51:42;103467.79;;;14.94;51.16
73918;BME280;63639;52.280;5.162;2023-02-14T10:54:18;103464.97;;;15.09;50.66
73918;BME280;63639;52.280;5.162;2023-02-14T10:56:50;103467.53;;;15.30;50.70
73918;BME280;63639;52.280;5.162;2023-02-14T10:59:22;103467.16;;;15.50;50.99
73918;BME280;63639;52.280;5.162;2023-02-14T11:01:52;103464.43;;;15.48;49.37
73918;BME280;63639;52.280;5.162;2023-02-14T11:04:23;103469.09;;;15.37;49.60
73918;BME280;63639;52.280;5.162;2023-02-14T11:06:51;103465.35;;;14.99;50.40
73918;BME280;63639;52.280;5.162;2023-02-14T11:09:18;103465.69;;;14.91;50.28
73918;BME280;63639;52.280;5.162;2023-02-14T11:11:48;103463.89;;;15.06;49.57
73918;BME280;63639;52.280;5.162;2023-02-14T11:14:20;103462.01;;;15.11;49.79
73918;BME280;63639;52.280;5.162;2023-02-14T11:16:47;103462.97;;;15.01;49.75
73918;BME280;63639;52.280;5.162;2023-02-14T11:19:20;103462.73;;;15.03;50.50
73918;BME280;63639;52.280;5.162;2023-02-14T11:21:48;103462.32;;;14.97;50.41
73918;BME280;63639;52.280;5.162;2023-02-14T11:24:18;103457.90;;;15.14;50.42
73918;BME280;63639;52.280;5.162;2023-02-14T11:26:46;103451.84;;;15.41;49.32
73918;BME280;63639;52.280;5.162;2023-02-14T11:29:20;103452.70;;;15.75;48.73
73918;BME280;63639;52.280;5.162;2023-02-14T11:31:48;103450.95;;;16.03;49.01
73918;BME280;63639;52.280;5.162;2023-02-14T11:34:24;103452.53;;;15.64;48.84
73918;BME280;63639;52.280;5.162;2023-02-14T11:36:56;103448.69;;;15.30;49.18
73918;BME280;63639;52.280;5.162;2023-02-14T11:39:27;103442.91;;;15.36;49.45
73918;BME280;63639;52.280;5.162;2023-02-14T11:41:57;103439.91;;;15.61;50.17
73918;BME280;63639;52.280;5.162;2023-02-14T11:44:26;103434.31;;;15.73;48.99
73918;BME280;63639;52.280;5.162;2023-02-14T11:46:55;103427.24;;;16.04;48.30
73918;BME280;63639;52.280;5.162;2023-02-14T11:49:26;103425.51;;;16.33;47.81
73918;BME280;63639;52.280;5.162;2023-02-14T11:51:54;103420.39;;;16.38;47.67
73918;BME280;63639;52.280;5.162;2023-02-14T11:54:28;103414.25;;;16.44;47.05
73918;BME280;63639;52.280;5.162;2023-02-14T11:57:01;103411.48;;;16.49;46.62
73918;BME280;63639;52.280;5.162;2023-02-14T11:59:31;103409.65;;;16.47;46.39
73918;BME280;63639;52.280;5.162;2023-02-14T12:02:02;103402.05;;;16.66;46.45
73918;BME280;63639;52.280;5.162;2023-02-14T12:04:32;103396.89;;;16.68;46.07
73918;BME280;63639;52.280;5.162;2023-02-14T12:07:19;103393.94;;;16.85;45.98
73918;BME280;63639;52.280;5.162;2023-02-14T12:09:47;103388.87;;;16.97;45.84
73918;BME280;63639;52.280;5.162;2023-02-14T12:12:17;103382.92;;;17.00;46.18
73918;BME280;63639;52.280;5.162;2023-02-14T12:14:44;103381.44;;;16.95;45.53
73918;BME280;63639;52.280;5.162;2023-02-14T12:17:22;103377.36;;;17.05;45.28
73918;BME280;63639;52.280;5.162;2023-02-14T12:19:57;103372.53;;;17.17;45.61
73918;BME280;63639;52.280;5.162;2023-02-14T12:22:27;103366.84;;;17.36;45.02
73918;BME280;63639;52.280;5.162;2023-02-14T12:25:01;103365.16;;;17.34;44.96
73918;BME280;63639;52.280;5.162;2023-02-14T12:27:31;103361.81;;;17.38;44.63
73918;BME280;63639;52.280;5.162;2023-02-14T12:30:08;103362.75;;;17.39;44.56
73918;BME280;63639;52.280;5.162;2023-02-14T12:32:43;103363.35;;;17.26;44.23
73918;BME280;63639;52.280;5.162;2023-02-14T12:35:14;103361.65;;;17.03;45.19
73918;BME280;63639;52.280;5.162;2023-02-14T12:37:53;103363.15;;;16.94;45.39
73918;BME280;63639;52.280;5.162;2023-02-14T12:40:30;103361.44;;;17.03;46.25
73918;BME280;63639;52.280;5.162;2023-02-14T12:43:09;103358.35;;;17.20;45.19
73918;BME280;63639;52.280;5.162;2023-02-14T12:45:53;103350.65;;;17.35;45.01
73918;BME280;63639;52.280;5.162;2023-02-14T12:48:33;103344.99;;;17.38;44.31
73918;BME280;63639;52.280;5.162;2023-02-14T12:51:06;103341.13;;;17.44;44.03
73918;BME280;63639;52.280;5.162;2023-02-14T12:53:48;103338.81;;;17.48;44.17
73918;BME280;63639;52.280;5.162;2023-02-14T12:56:23;103336.43;;;17.49;43.92
73918;BME280;63639;52.280;5.162;2023-02-14T12:58:59;103329.17;;;17.49;43.77
73918;BME280;63639;52.280;5.162;2023-02-14T13:01:53;103327.41;;;17.72;43.36
73918;BME280;63639;52.280;5.162;2023-02-14T13:04:58;103320.15;;;17.69;42.95
73918;BME280;63639;52.280;5.162;2023-02-14T13:07:39;103318.76;;;17.70;43.50
73918;BME280;63639;52.280;5.162;2023-02-14T13:10:17;103311.66;;;17.62;43.12
73918;BME280;63639;52.280;5.162;2023-02-14T13:12:49;103306.40;;;17.69;43.06
73918;BME280;63639;52.280;5.162;2023-02-14T13:15:24;103305.28;;;17.84;43.23